Terminal Aerodrome Forecast
Issued by NWS San Angelo, TX

Home | Current Version | Previous Version | Text Only | Print | Product List | Glossary On
Versions: 1 2 3 4 5 6 7 8 9 10 11 12 13 14 15 16 17
000
FTUS44 KSJT 272300
TAFSJT
TAF
KSJT 272323Z 2800/2824 36006KT P6SM SCT020 OVC050
     FM281300 VRB04KT P6SM FEW050 OVC090=

USA.gov is the U.S. government's official web portal to all federal, state and local government web resources and services.